Flight Track Log - Related Links

Times and Time Zones

All times are in EDT time to prevent confusion due to time zone crossing. See the EGF2974 flight status page for this flight to view local times or setup timezone preferences in your user account.

Time Position Orientation Groundspeed Altitude Reporting Facility
EDT Latitude Longitude Course Direction KTS MPH feet Rate Location/Type
Thu 09:16:15 AM 32.3993 -99.6646 112° Southeast  Level FlightAware Approximate
Thu 09:17:15 AM 32.3758 -99.5791 116° Southeast  Level FlightAware Approximate
Thu 09:18:15 AM 32.3615 -99.4909 159° South  Level FlightAware Approximate
Thu 09:19:23 AM 32.3342 -99.4786 96° East 274 315 7,800  Level Fort Worth Center
Thu 09:20:23 AM 32.3253 -99.3828 98° East 285 328 9,700 1,750 Climbing Fort Worth Center
Thu 09:21:23 AM 32.3122 -99.2742 97° East 300 345 11,300 1,600 Climbing Fort Worth Center
Thu 09:22:23 AM 32.3014 -99.1633 97° East 322 371 12,900 1,550 Climbing Fort Worth Center
Thu 09:23:23 AM 32.2883 -99.0453 97° East 344 396 14,400 1,500 Climbing Fort Worth Center
Thu 09:24:23 AM 32.2753 -98.9244 96° East 362 417 15,900 1,500 Climbing Fort Worth Center
Thu 09:25:23 AM 32.2642 -98.8017 85° East 369 425 17,400 1,450 Climbing Fort Worth Center
Thu 09:26:23 AM 32.2739 -98.6617 84° East 369 425 18,800 800 Climbing Fort Worth Center
Thu 09:27:23 AM 32.2856 -98.5317 85° East 393 452 19,000 100 Climbing Fort Worth Center
Thu 09:28:23 AM 32.2950 -98.3892 85° East 427 491 19,000 -350 Level Fort Worth Center
Thu 09:29:23 AM 32.3044 -98.2589 87° East 443 510 18,300 -1,150 Descending Fort Worth Center
Thu 09:30:23 AM 32.3117 -98.1092 85° East 428 493 16,700 -1,450 Descending Fort Worth Center
Thu 09:31:23 AM 32.3206 -97.9861 86° East 416 479 15,400 -1,426 Descending Fort Worth Center
Thu 09:32:25 AM 32.3303 -97.8358 87° East 405 466 13,800 -1,471 Descending FAA TRACON SMA TRACON (SMA)
Thu 09:33:05 AM 32.3333 -97.7533 80° East 401 461 12,900 -1,333 Descending FAA TRACON SMA TRACON (SMA)
Thu 09:33:46 AM 32.3458 -97.6658 51° Northeast 396 456 12,000 -1,425 Descending FAA TRACON SMA TRACON (SMA)
Thu 09:34:25 AM 32.3933 -97.5972 46° Northeast 390 449 11,000 -825 Descending FAA TRACON SMA TRACON (SMA)
Thu 09:35:06 AM 32.4392 -97.5417 45° Northeast 384 442 10,900 -75 Descending FAA TRACON SMA TRACON (SMA)
Thu 09:35:45 AM 32.4903 -97.4808 45° Northeast 377 434 10,900  Level FAA TRACON SMA TRACON (SMA)
Thu 09:36:26 AM 32.5419 -97.4194 46° Northeast 379 436 10,900  Level FAA TRACON SMA TRACON (SMA)
Thu 09:37:05 AM 32.5875 -97.3642 46° Northeast 379 436 10,900  Level FAA TRACON SMA TRACON (SMA)
Thu 09:37:46 AM 32.6386 -97.3022 46° Northeast 380 437 10,900  Level FAA TRACON SMA TRACON (SMA)
Thu 09:38:25 AM 32.6817 -97.2500 46° Northeast 355 409 10,900  Level FAA TRACON SMA TRACON (SMA)
Thu 09:39:05 AM 32.7233 -97.1994 28° Northeast 302 348 10,900  Level FAA TRACON SMA TRACON (SMA)
Thu 09:39:52 AM 32.7667 -97.1717 North 263 303 10,900 -222 Level FAA TRACON SMA TRACON (SMA)
Thu 09:40:26 AM 32.8158 -97.1706 360° North 254 292 10,600 -973 Descending FAA TRACON SMA TRACON (SMA)
Thu 09:41:06 AM 32.8594 -97.1706 360° North 254 292 9,700 -1,407 Descending FAA TRACON SMA TRACON (SMA)
Thu 09:41:47 AM 32.9086 -97.1706 North 256 295 8,700 -1,407 Descending FAA TRACON SMA TRACON (SMA)
Thu 09:42:27 AM 32.9519 -97.1686 North 253 291 7,800 -1,556 Descending FAA TRACON SMA TRACON (SMA)
Thu 09:43:08 AM 32.9994 -97.1664 42° Northeast 244 281 6,600 -1,800 Descending FAA TRACON SMA TRACON (SMA)
Thu 09:43:47 AM 33.0328 -97.1300 42° Northeast 270 311 5,400 -1,846 Descending FAA TRACON SMA TRACON (SMA)

Login

Don't have an account? Register now (free) for customized features, flight alerts, and more!